Portada
METAR-TAF:

METAR-TAF

Aeropuertos :

Aeropuerto Internacional Lambert

San Luis, Misuri, Estados Unidos

latitud: 38-45-09N, longitud: 090-22-25W, altitud: 184 m

Observación

El informe se hizo hace 42 minutos, a las 07:51 UTC
Viento 3 kt del oeste
Temperatura 23°C
Humedad 89%
Presión 1015 hPa
Visibilidad: 16.1 km
Escasas nubes a una altura de 25000 ft

METAR: KSTL 060751Z 26003KT 10SM FEW250 23/21 A2998 RMK AO2 SLP138 T02280206

Hora: 03:33 (08:33 UTC)

Pronóstico

El informe se hizo hace 3 horas y 9 minutos, a las 05:24 UTC
Pronóstico válido del 06 a las 06 UTC al 07 a las 12 UTC
Viento 3 kt con dirección variable
Visibilidad: 10 km
Escasas nubes a una altura de 20000 ft
A partir de las 06 a las 1600 UTC
Viento 7 kt del este
Visibilidad: 10 km
Nubes dispersas a una altura de 20000 ft

TAF: KSTL 060524Z 0606/0712 VRB03KT P6SM FEW200 FM061600 09007KT P6SM SCT200

Observaciones y pronósticos meteorológicos de más de 4000 aeropuertos (mensajes METAR y TAF).

Los puntos amarillos y rojos representan las estaciones disponibles.

Ponga el ratón en el punto deseado para ver el nombre de la estación.

Haga clic para ver las observaciones y los pronósticos meteorológicos.

Para cambiar el mapa : haga clic en los botones verdes con una cruz de color negro para hacer un zoom, en el botón verde con un guión para alejar o en las flechas verdes para mapas adyacentes.


METAR-TAF: